GMFF/FEZ METAR and TAF weather

Enter ICAO airport designator
Station Type Date Time Source
GMFF METAR 2021/05/14 14:00 UTC NOAA

GMFF 141400Z 30005KT 230V030 CAVOK 26/10 Q1018 NOSIG


Station Type Date Time Source
GMFF Decoded METAR 2021/05/14 14:00 UTC NOAA

Fes-Sais, Morocco (GMFF) 33-56N 004-59W 579M
May 14, 2021 - 10:00 AM EDT / 2021.05.14 1400 UTC
Wind: from the WNW (300 degrees) at 6 MPH (5 KT) (direction variable):0
Visibility: greater than 7 mile(s):0
Temperature: 78 F (26 C)
Dew Point: 50 F (10 C)
Relative Humidity: 36%
Pressure (altimeter): 30.06 in. Hg (1018 hPa)
ob: GMFF 141400Z 30005KT 230V030 CAVOK 26/10 Q1018 NOSIG
cycle: 14

Station Type Date Time Source
GMFF TAF 2021/05/14 12:21 UTC NOAA

TAF TAF GMFF 141100Z 1412/1518 35008KT CAVOK

Example: see airport list